createdAt,value
2023-05-12T08:31:36.994Z,92.16
2023-05-12T08:32:16.432Z,92.47
2023-05-12T08:33:16.370Z,92.77
2023-05-12T08:34:14.486Z,92.26
2023-05-12T08:35:19.105Z,91.96
2023-05-12T08:36:16.968Z,91.86
2023-05-12T08:37:14.370Z,93.27
2023-05-12T08:38:15.319Z,92.67
2023-05-12T08:39:28.898Z,92.47
2023-05-12T08:40:14.261Z,91.82
2023-05-12T08:41:14.296Z,92.02
2023-05-12T08:42:14.152Z,90.50
2023-05-12T08:43:19.504Z,90.91
2023-05-12T08:44:14.390Z,91.00
2023-05-12T08:45:14.941Z,90.86
2023-05-12T08:46:15.642Z,91.06
2023-05-12T08:47:14.158Z,90.70
2023-05-12T08:48:14.396Z,91.57
2023-05-12T08:49:13.888Z,90.20
2023-05-12T08:51:57.748Z,89.00
2023-05-12T08:54:30.978Z,89.14
2023-05-12T08:55:30.822Z,90.11
2023-05-12T09:08:12.859Z,87.07
2023-05-12T09:09:39.488Z,87.27
2023-05-12T09:19:43.761Z,84.21
2023-05-12T09:20:44.753Z,84.41
2023-05-12T09:21:43.085Z,84.91
2023-05-12T09:51:26.811Z,73.67
2023-05-12T09:52:26.616Z,73.57
2023-05-12T09:53:33.471Z,73.13
2023-05-12T09:54:34.552Z,71.66
2023-05-12T09:57:45.517Z,75.08
2023-05-12T10:01:36.789Z,71.60
2023-05-12T10:02:46.891Z,73.57
2023-05-12T10:03:36.586Z,71.93
2023-05-12T10:04:36.661Z,71.30
2023-05-12T10:05:36.552Z,73.57
2023-05-12T10:06:37.668Z,69.32
2023-05-12T10:07:36.457Z,70.29
2023-05-12T10:08:36.569Z,67.36
2023-05-12T10:09:36.416Z,70.66
2023-05-12T10:10:36.377Z,66.66
2023-05-12T10:11:36.346Z,67.16
2023-05-12T10:12:36.815Z,66.63
2023-05-12T10:13:36.267Z,66.25
2023-05-12T10:14:36.311Z,68.76
2023-05-12T10:15:36.282Z,68.23
2023-05-12T10:16:36.261Z,64.83
2023-05-12T10:17:38.841Z,65.75
2023-05-12T10:18:36.474Z,67.55
2023-05-12T10:19:36.138Z,67.29
2023-05-12T10:20:36.963Z,67.96
2023-05-12T10:21:36.012Z,68.63
2023-05-12T10:22:37.881Z,64.36
2023-05-12T10:23:37.814Z,64.59
2023-05-12T10:24:35.926Z,65.05
2023-05-12T10:25:35.922Z,67.39
2023-05-12T10:26:35.873Z,65.99
2023-05-12T10:27:35.821Z,67.79
2023-05-12T10:28:35.791Z,67.61
2023-05-12T10:29:36.735Z,68.29
2023-05-12T10:30:35.711Z,66.99
2023-05-12T10:31:35.720Z,66.95
2023-05-12T10:32:35.750Z,67.42
2023-05-12T10:33:35.628Z,66.32
2023-05-12T10:38:02.945Z,67.85
2023-05-12T10:39:02.537Z,66.55
2023-05-12T10:40:12.235Z,67.65
2023-05-12T10:41:56.161Z,65.75
2023-05-12T10:42:02.488Z,66.55
2023-05-12T10:43:02.545Z,68.32
2023-05-12T10:44:02.403Z,68.12
2023-05-12T10:45:02.792Z,66.92
2023-05-12T10:46:02.357Z,65.25
2023-05-12T10:49:28.347Z,66.42
2023-05-12T10:50:29.035Z,66.22
2023-05-12T10:51:41.526Z,66.69
